Página principal
METAR-TAF:

METAR-TAF

Aeroportos :

Guelmim, Marrocos

latitude: 29-01-00N, longitude: 10-04-04W, altura: 301 m

Observação actual do tempo

O boletim foi feito há 34 minutos, às 06:00 UTC
Vento calmo
Temperatura 15°C
Humidade 94%
Pressão 1017 hPa
Visibilidade: 5000 m
Poucas nuvensa uma altura de 1500 ft

METAR: GMAG 260600Z 00000KT 5000 FEW015 15/14 Q1017 NOSIG

Hora: 07:34 (06:34 UTC)

Previsão

O boletim foi feito há 1 hora e 34 minutos, às 05:00 UTC
Previsão válida de 26 às 06 UTC a 27 às 12 UTC
Vento 2 kt com direcção variável
Visibilidade: 8000 m
Probabilidade 40%
de 26 às 06 UTC a 26 às 08 UTC
Visibilidade: 3000 m
Nuvens fragmentadasa uma altura de 600 ft
neblina

TAF: GMAG 260500Z 2606/2712 VRB02KT 8000 NSC PROB40 2606/2608 3000 BR BKN006

Observações e previsões do tempo de mais de 4000 aeroportos (mensagens METAR e TAF).

As estações disponíveis são os pontos amarelos e vermelhos sobre o mapa.

Mova o rato sobre o mapa para ver o nome da estação.

Depois clique no ponto para visualizar as observações e previsões meteorológicas.

Para alterar o mapa : clique nos botões verdes com uma cruz preta para aumentar o zoom; no botão verde com uma pitada de zoom; ou nas setas verdes para mapas adjacentes.


METAR-TAF: